createdAt,value
2022-11-29T00:00:55.374Z,86.52
2022-11-29T00:03:21.808Z,86.65
2022-11-29T00:05:48.252Z,86.93
2022-11-29T00:08:14.608Z,86.52
2022-11-29T00:10:41.011Z,85.99
2022-11-29T00:13:07.428Z,85.75
2022-11-29T00:15:38.291Z,86.00
2022-11-29T00:18:05.952Z,85.78
2022-11-29T00:20:34.379Z,85.89
2022-11-29T00:23:01.573Z,86.09
2022-11-29T00:25:28.115Z,86.54
2022-11-29T00:27:54.491Z,86.69
2022-11-29T00:30:21.040Z,85.94
2022-11-29T00:32:47.528Z,85.93
2022-11-29T00:35:14.273Z,85.93
2022-11-29T00:37:40.658Z,86.40
2022-11-29T00:40:07.794Z,86.72
2022-11-29T00:42:34.162Z,86.54
2022-11-29T00:45:00.520Z,86.49
2022-11-29T00:47:26.899Z,86.83
2022-11-29T00:49:53.317Z,86.74
2022-11-29T00:52:19.665Z,87.24
2022-11-29T00:54:46.175Z,87.14
2022-11-29T00:57:12.805Z,86.18
2022-11-29T00:59:39.230Z,86.92
2022-11-29T01:02:05.673Z,86.77
2022-11-29T01:04:32.129Z,86.87
2022-11-29T01:06:58.483Z,86.97
2022-11-29T01:09:24.852Z,87.24
2022-11-29T01:11:51.220Z,86.79
2022-11-29T01:14:17.605Z,87.22
2022-11-29T01:16:44.021Z,86.53
2022-11-29T01:19:10.768Z,86.82
2022-11-29T01:21:37.557Z,86.87
2022-11-29T01:24:04.192Z,87.64
2022-11-29T01:26:31.851Z,87.01
2022-11-29T01:28:59.124Z,87.17
2022-11-29T01:31:31.659Z,87.13
2022-11-29T01:34:01.526Z,87.18
2022-11-29T01:36:28.195Z,87.78
2022-11-29T01:41:28.328Z,86.94
2022-11-29T01:43:59.407Z,87.08
2022-11-29T01:46:28.094Z,87.02
2022-11-29T01:48:58.979Z,86.63
2022-11-29T01:51:26.628Z,86.91
2022-11-29T01:53:54.219Z,86.37
2022-11-29T01:56:21.392Z,86.20
2022-11-29T01:58:47.783Z,86.17
2022-11-29T02:01:14.584Z,85.98
2022-11-29T02:03:41.077Z,85.54
2022-11-29T02:06:07.907Z,85.74
2022-11-29T02:08:41.118Z,85.89
2022-11-29T02:11:25.575Z,86.19
2022-11-29T02:14:15.348Z,85.68
2022-11-29T02:17:08.491Z,85.77
2022-11-29T02:20:06.250Z,86.02
2022-11-29T02:22:56.154Z,86.40
2022-11-29T02:25:54.861Z,86.00
2022-11-29T02:28:56.795Z,86.33
2022-11-29T02:31:29.111Z,85.97
2022-11-29T02:34:04.465Z,85.34
2022-11-29T02:37:08.656Z,85.74
2022-11-29T02:39:56.711Z,85.47
2022-11-29T02:42:56.180Z,85.83
2022-11-29T02:45:40.651Z,86.00
2022-11-29T02:48:22.383Z,85.87
2022-11-29T02:51:14.931Z,85.88
2022-11-29T02:53:52.069Z,85.33
2022-11-29T02:56:46.454Z,85.97
2022-11-29T02:59:39.903Z,86.76
2022-11-29T03:02:16.575Z,86.82
2022-11-29T03:04:58.320Z,86.96
2022-11-29T03:08:02.196Z,86.67
2022-11-29T03:11:06.809Z,87.22
2022-11-29T03:13:57.932Z,87.42
2022-11-29T03:16:43.054Z,87.55
2022-11-29T03:19:28.686Z,87.62
2022-11-29T03:22:11.892Z,87.14
2022-11-29T03:25:08.979Z,87.55
2022-11-29T03:27:46.155Z,87.36
2022-11-29T03:30:14.816Z,87.53
2022-11-29T03:33:12.896Z,87.20
2022-11-29T03:35:59.511Z,86.96
2022-11-29T03:38:47.349Z,86.79
2022-11-29T03:41:28.229Z,86.52
2022-11-29T03:44:05.230Z,86.36
2022-11-29T03:46:38.016Z,86.12
2022-11-29T03:49:13.246Z,86.67
2022-11-29T03:52:17.235Z,86.77
2022-11-29T03:55:19.142Z,86.34
2022-11-29T03:58:04.768Z,86.88
2022-11-29T04:00:45.410Z,86.37
2022-11-29T04:03:50.501Z,86.34
2022-11-29T04:07:07.079Z,87.06
2022-11-29T04:09:52.033Z,87.32
2022-11-29T04:12:18.343Z,87.27
2022-11-29T04:15:15.876Z,86.97
2022-11-29T04:18:06.983Z,87.44
2022-11-29T04:20:55.318Z,86.71
2022-11-29T04:23:36.919Z,86.92
2022-11-29T04:26:24.755Z,86.84
2022-11-29T04:29:15.968Z,86.17
2022-11-29T04:32:01.310Z,86.49
2022-11-29T04:34:56.113Z,86.61
2022-11-29T04:37:54.819Z,87.05
2022-11-29T04:40:43.912Z,87.29
2022-11-29T04:43:59.140Z,87.40
2022-11-29T04:46:40.478Z,87.12
2022-11-29T04:49:34.803Z,87.17
2022-11-29T04:52:27.218Z,87.89
2022-11-29T04:55:10.937Z,87.42
2022-11-29T04:57:47.410Z,87.10
2022-11-29T05:00:20.902Z,87.92
2022-11-29T05:02:59.703Z,87.78
2022-11-29T05:05:47.525Z,87.58
2022-11-29T05:08:35.229Z,87.76
2022-11-29T05:11:26.731Z,87.87
2022-11-29T05:14:08.755Z,87.99
2022-11-29T05:16:48.887Z,87.40
2022-11-29T05:19:34.044Z,87.41
2022-11-29T05:22:18.796Z,87.03
2022-11-29T05:25:25.324Z,87.85
2022-11-29T05:27:58.140Z,88.07
2022-11-29T05:30:40.155Z,87.47
2022-11-29T05:33:38.268Z,87.88
2022-11-29T05:36:39.890Z,88.12
2022-11-29T05:39:31.297Z,88.13
2022-11-29T05:42:45.866Z,88.32
2022-11-29T05:45:21.043Z,88.04
2022-11-29T05:47:58.939Z,88.20
2022-11-29T05:50:44.490Z,88.30
2022-11-29T05:53:32.664Z,87.74
2022-11-29T05:56:13.965Z,87.60
2022-11-29T05:59:07.963Z,86.88
2022-11-29T06:01:52.351Z,86.82
2022-11-29T06:04:57.202Z,87.39
2022-11-29T06:07:33.180Z,87.69
2022-11-29T06:10:05.068Z,88.02
2022-11-29T06:12:35.939Z,88.79
2022-11-29T06:15:28.400Z,88.29
2022-11-29T06:18:03.166Z,88.32
2022-11-29T06:20:35.427Z,88.37
2022-11-29T06:23:24.063Z,87.61
2022-11-29T06:26:25.194Z,86.79
2022-11-29T06:29:24.027Z,87.17
2022-11-29T06:32:08.276Z,87.12
2022-11-29T06:34:45.217Z,87.21
2022-11-29T06:37:22.983Z,87.34
2022-11-29T06:39:49.581Z,87.37
2022-11-29T06:42:16.220Z,87.52
2022-11-29T06:44:43.063Z,87.61
2022-11-29T06:47:51.712Z,88.07
2022-11-29T06:51:15.796Z,87.67
2022-11-29T06:53:56.499Z,86.96
2022-11-29T06:56:29.541Z,86.84
2022-11-29T06:59:13.894Z,86.59
2022-11-29T07:01:47.834Z,86.68
2022-11-29T07:05:01.333Z,86.77
2022-11-29T07:07:28.064Z,86.49
2022-11-29T07:10:00.093Z,86.83
2022-11-29T07:12:26.831Z,86.63
2022-11-29T07:14:53.507Z,86.56
2022-11-29T07:17:22.838Z,87.21
2022-11-29T07:19:57.454Z,86.71
2022-11-29T07:22:36.494Z,86.58
2022-11-29T07:25:29.843Z,86.24
2022-11-29T07:28:26.071Z,86.92
2022-11-29T07:31:02.800Z,86.84
2022-11-29T07:34:02.895Z,87.09
2022-11-29T07:36:50.326Z,86.62
2022-11-29T07:39:44.011Z,87.07
2022-11-29T07:42:23.185Z,86.27
2022-11-29T07:45:14.435Z,86.17
2022-11-29T07:47:41.035Z,86.15
2022-11-29T07:50:07.906Z,86.23
2022-11-29T07:52:34.551Z,86.49
2022-11-29T07:55:02.119Z,86.86
2022-11-29T07:57:28.467Z,86.79
2022-11-29T07:59:54.824Z,86.26
2022-11-29T08:02:31.807Z,86.32
2022-11-29T08:04:58.603Z,86.28
2022-11-29T08:07:25.484Z,86.87
2022-11-29T08:09:51.963Z,86.34
2022-11-29T08:12:18.477Z,85.34
2022-11-29T08:14:45.174Z,84.39
2022-11-29T08:17:11.721Z,84.24
2022-11-29T08:19:38.102Z,84.04
2022-11-29T08:22:04.554Z,84.18
2022-11-29T08:24:31.103Z,83.69
2022-11-29T08:26:57.608Z,83.00
2022-11-29T08:29:23.959Z,83.24
2022-11-29T08:31:53.398Z,83.79
2022-11-29T08:34:20.891Z,83.76
2022-11-29T08:36:47.328Z,84.08
2022-11-29T08:39:13.694Z,84.83
2022-11-29T08:41:40.110Z,84.65
2022-11-29T08:44:06.585Z,83.44
2022-11-29T08:46:51.659Z,83.59
2022-11-29T08:49:18.144Z,83.63
2022-11-29T08:51:44.598Z,83.69
2022-11-29T08:54:12.227Z,83.17
2022-11-29T08:59:24.942Z,83.85
2022-11-29T09:01:51.365Z,83.38
2022-11-29T09:04:17.822Z,82.77
2022-11-29T09:06:44.413Z,83.93
2022-11-29T09:09:10.765Z,82.87
2022-11-29T09:11:37.196Z,83.09
2022-11-29T09:14:06.816Z,83.07
2022-11-29T09:16:37.400Z,82.69
2022-11-29T09:19:05.398Z,83.75
2022-11-29T09:21:34.767Z,84.22
2022-11-29T09:24:06.331Z,84.06
2022-11-29T09:26:34.816Z,84.04
2022-11-29T09:29:03.235Z,83.41
2022-11-29T09:31:31.109Z,83.64
2022-11-29T09:33:58.273Z,83.39
2022-11-29T09:36:28.871Z,83.63
2022-11-29T09:38:55.909Z,83.01
2022-11-29T09:41:51.756Z,82.78
2022-11-29T09:44:27.508Z,82.69
2022-11-29T09:47:04.225Z,82.69
2022-11-29T09:49:53.161Z,81.85
2022-11-29T09:52:25.635Z,81.94
2022-11-29T09:55:01.860Z,81.80
2022-11-29T09:57:31.296Z,81.79
2022-11-29T10:00:02.033Z,81.38
2022-11-29T10:02:37.220Z,81.99
2022-11-29T10:05:13.679Z,81.77
2022-11-29T10:07:46.117Z,81.17
2022-11-29T10:10:22.322Z,80.89
2022-11-29T10:12:55.172Z,80.74
2022-11-29T10:15:27.269Z,79.48
2022-11-29T10:18:05.109Z,80.87
2022-11-29T10:20:43.514Z,79.85
2022-11-29T10:23:29.787Z,79.61
2022-11-29T10:25:57.805Z,80.09
2022-11-29T10:28:27.392Z,79.79
2022-11-29T10:30:55.444Z,80.19
2022-11-29T10:33:26.888Z,79.82
2022-11-29T10:35:57.864Z,80.38
2022-11-29T10:38:32.350Z,80.28
2022-11-29T10:41:06.293Z,79.60
2022-11-29T10:43:32.710Z,80.39
2022-11-29T10:46:00.236Z,79.82
2022-11-29T10:48:31.690Z,79.57
2022-11-29T10:50:58.735Z,80.40
2022-11-29T10:53:27.646Z,79.89
2022-11-29T10:56:16.302Z,79.68
2022-11-29T10:58:57.992Z,80.26
2022-11-29T11:01:26.373Z,80.03
2022-11-29T11:03:54.853Z,79.25
2022-11-29T11:06:26.415Z,79.08
2022-11-29T11:09:11.075Z,79.54
2022-11-29T11:11:38.711Z,79.10
2022-11-29T11:14:20.519Z,78.93
2022-11-29T11:16:46.994Z,78.92
2022-11-29T11:19:32.940Z,79.53
2022-11-29T11:22:01.850Z,79.35
2022-11-29T11:24:31.710Z,79.79
2022-11-29T11:26:58.943Z,79.62
2022-11-29T11:29:33.835Z,79.40
2022-11-29T11:32:00.731Z,79.49
2022-11-29T11:34:36.591Z,79.41
2022-11-29T11:37:15.041Z,78.99
2022-11-29T11:39:42.855Z,78.28
2022-11-29T11:42:34.758Z,78.41
2022-11-29T11:45:03.315Z,79.49
2022-11-29T11:47:32.742Z,78.71
2022-11-29T11:50:02.324Z,78.24
2022-11-29T11:52:54.278Z,78.77
2022-11-29T11:55:40.465Z,78.77
2022-11-29T11:58:13.024Z,78.69
2022-11-29T12:03:48.411Z,78.97
2022-11-29T12:06:30.043Z,78.59
2022-11-29T12:09:18.581Z,79.50
2022-11-29T12:12:01.291Z,80.48
2022-11-29T12:14:55.779Z,80.14
2022-11-29T12:17:49.014Z,80.06
2022-11-29T12:20:19.196Z,79.83
2022-11-29T12:22:59.035Z,79.33
2022-11-29T12:25:44.656Z,78.43
2022-11-29T12:28:20.659Z,79.62
2022-11-29T12:31:38.704Z,79.79
2022-11-29T12:34:53.162Z,79.42
2022-11-29T12:37:45.409Z,79.41
2022-11-29T12:40:24.004Z,80.30
2022-11-29T12:43:15.316Z,80.44
2022-11-29T12:45:53.748Z,81.07
2022-11-29T12:48:48.963Z,80.99
2022-11-29T12:51:23.229Z,80.38
2022-11-29T12:54:17.611Z,80.64
2022-11-29T12:56:49.263Z,81.60
2022-11-29T12:59:48.162Z,81.44
2022-11-29T13:02:28.811Z,81.36
2022-11-29T13:05:04.469Z,81.34
2022-11-29T13:07:47.354Z,81.05
2022-11-29T13:10:35.651Z,81.59
2022-11-29T13:13:29.133Z,80.89
2022-11-29T13:16:13.585Z,80.86
2022-11-29T13:19:11.358Z,80.89
2022-11-29T13:22:10.171Z,81.57
2022-11-29T13:24:46.274Z,80.95
2022-11-29T13:27:18.204Z,81.28
2022-11-29T13:29:45.460Z,81.77
2022-11-29T13:32:36.725Z,81.12
2022-11-29T13:35:43.775Z,81.49
2022-11-29T13:38:19.013Z,80.81
2022-11-29T13:40:52.552Z,81.47
2022-11-29T13:43:32.281Z,81.37
2022-11-29T13:46:16.382Z,81.77
2022-11-29T13:48:51.887Z,81.84
2022-11-29T13:51:27.982Z,81.83
2022-11-29T13:53:56.461Z,82.19
2022-11-29T13:56:46.250Z,82.52
2022-11-29T13:59:18.387Z,82.25
2022-11-29T14:01:51.303Z,82.42
2022-11-29T14:04:24.133Z,82.07
2022-11-29T14:07:01.069Z,82.23
2022-11-29T14:09:39.796Z,82.80
2022-11-29T14:12:41.651Z,83.13
2022-11-29T14:15:11.113Z,82.99
2022-11-29T14:18:02.819Z,83.16
2022-11-29T14:20:29.142Z,82.85
2022-11-29T14:23:04.376Z,83.09
2022-11-29T14:25:51.524Z,82.96
2022-11-29T14:28:21.585Z,83.46
2022-11-29T14:30:58.552Z,83.49
2022-11-29T14:33:25.241Z,83.65
2022-11-29T14:36:18.980Z,83.47
2022-11-29T14:39:10.223Z,82.72
2022-11-29T14:41:45.780Z,83.19
2022-11-29T14:44:20.192Z,82.78
2022-11-29T14:46:48.513Z,82.43
2022-11-29T14:49:22.910Z,83.16
2022-11-29T14:52:13.441Z,82.37
2022-11-29T14:55:09.306Z,82.87
2022-11-29T14:57:50.769Z,82.94
2022-11-29T15:00:32.462Z,82.86
2022-11-29T15:03:03.370Z,82.82
2022-11-29T15:05:34.509Z,83.34
2022-11-29T15:08:35.373Z,83.49
2022-11-29T15:11:05.724Z,83.18
2022-11-29T15:13:36.734Z,83.42
2022-11-29T15:16:28.820Z,83.59
2022-11-29T15:19:21.459Z,83.43
2022-11-29T15:22:17.461Z,83.81
2022-11-29T15:24:56.825Z,83.39
2022-11-29T15:27:24.322Z,83.77
2022-11-29T15:29:52.287Z,83.62
2022-11-29T15:32:32.442Z,83.04
2022-11-29T15:34:59.375Z,83.33
2022-11-29T15:37:39.767Z,83.78
2022-11-29T15:40:18.398Z,84.22
2022-11-29T15:42:48.410Z,83.51
2022-11-29T15:45:35.741Z,83.44
2022-11-29T15:48:28.616Z,83.84
2022-11-29T15:51:32.829Z,84.03
2022-11-29T15:54:12.701Z,84.20
2022-11-29T15:56:45.676Z,84.16
2022-11-29T15:59:37.627Z,84.47
2022-11-29T16:02:19.415Z,84.12
2022-11-29T16:04:47.503Z,84.63
2022-11-29T16:07:14.796Z,83.99
2022-11-29T16:09:47.770Z,84.37
2022-11-29T16:12:17.189Z,84.47
2022-11-29T16:14:58.048Z,84.24
2022-11-29T16:17:30.643Z,84.05
2022-11-29T16:20:06.253Z,84.20
2022-11-29T16:22:32.678Z,84.04
2022-11-29T16:25:05.716Z,83.77
2022-11-29T16:27:35.014Z,83.52
2022-11-29T16:30:02.313Z,83.97
2022-11-29T16:32:35.102Z,83.81
2022-11-29T16:35:24.243Z,84.23
2022-11-29T16:37:50.993Z,84.22
2022-11-29T16:40:23.519Z,83.74
2022-11-29T16:43:23.897Z,84.19
2022-11-29T16:46:30.490Z,84.57
2022-11-29T16:49:00.977Z,84.72
2022-11-29T16:51:37.615Z,84.97
2022-11-29T16:54:30.339Z,85.04
2022-11-29T16:56:57.199Z,84.89
2022-11-29T16:59:28.108Z,85.04
2022-11-29T17:01:56.343Z,84.80
2022-11-29T17:04:24.041Z,84.65
2022-11-29T17:06:51.610Z,85.25
2022-11-29T17:09:30.694Z,85.47
2022-11-29T17:12:01.089Z,85.44
2022-11-29T17:14:29.020Z,85.11
2022-11-29T17:16:55.568Z,84.72
2022-11-29T17:19:23.597Z,85.16
2022-11-29T17:21:51.206Z,84.80
2022-11-29T17:24:20.024Z,85.11
2022-11-29T17:26:46.664Z,84.96
2022-11-29T17:29:14.903Z,84.69
2022-11-29T17:31:44.101Z,85.27
2022-11-29T17:34:10.965Z,85.27
2022-11-29T17:36:37.799Z,85.00
2022-11-29T17:39:04.999Z,85.42
2022-11-29T17:41:33.011Z,84.72
2022-11-29T17:44:00.438Z,85.25
2022-11-29T17:46:29.671Z,85.35
2022-11-29T17:48:58.203Z,84.99
2022-11-29T17:54:12.340Z,84.71
2022-11-29T17:56:38.737Z,85.36
2022-11-29T17:59:05.686Z,85.29
2022-11-29T18:01:34.728Z,84.87
2022-11-29T18:04:03.012Z,84.91
2022-11-29T18:06:34.250Z,84.99
2022-11-29T18:09:01.509Z,84.84
2022-11-29T18:11:41.667Z,84.93
2022-11-29T18:14:13.155Z,84.99
2022-11-29T18:16:39.640Z,85.22
2022-11-29T18:19:09.214Z,84.95
2022-11-29T18:21:36.486Z,84.99
2022-11-29T18:24:04.758Z,85.19
2022-11-29T18:26:32.839Z,85.47
2022-11-29T18:28:59.735Z,84.67
2022-11-29T18:31:29.219Z,85.34
2022-11-29T18:33:58.385Z,85.49
2022-11-29T18:36:28.815Z,85.30
2022-11-29T18:39:04.773Z,85.84
2022-11-29T18:41:31.809Z,85.46
2022-11-29T18:44:01.492Z,85.47
2022-11-29T18:46:32.383Z,85.49
2022-11-29T18:49:01.315Z,84.79
2022-11-29T18:51:29.800Z,85.24
2022-11-29T18:53:57.313Z,85.14
2022-11-29T18:56:26.145Z,85.97
2022-11-29T18:58:58.631Z,85.83
2022-11-29T19:01:28.003Z,85.37
2022-11-29T19:03:56.982Z,85.58
2022-11-29T19:06:32.815Z,85.74
2022-11-29T19:09:04.719Z,85.77
2022-11-29T19:11:33.273Z,86.00
2022-11-29T19:14:05.945Z,85.67
2022-11-29T19:16:34.392Z,85.73
2022-11-29T19:19:01.911Z,85.70
2022-11-29T19:21:31.717Z,85.43
2022-11-29T19:24:00.228Z,85.47
2022-11-29T19:26:28.774Z,85.60
2022-11-29T19:28:56.055Z,85.58
2022-11-29T19:31:25.022Z,85.92
2022-11-29T19:33:52.516Z,85.54
2022-11-29T19:36:28.220Z,85.32
2022-11-29T19:38:55.024Z,86.20
2022-11-29T19:41:26.535Z,86.39
2022-11-29T19:43:53.670Z,86.69
2022-11-29T19:46:23.462Z,86.50
2022-11-29T19:48:52.547Z,86.47
2022-11-29T19:51:19.867Z,86.29
2022-11-29T19:53:47.383Z,85.87
2022-11-29T19:56:16.440Z,86.27
2022-11-29T19:58:43.842Z,86.39
2022-11-29T20:01:13.700Z,86.43
2022-11-29T20:03:40.924Z,86.84
2022-11-29T20:06:08.774Z,86.79
2022-11-29T20:08:36.066Z,86.77
2022-11-29T20:11:07.441Z,86.38
2022-11-29T20:13:33.943Z,86.99
2022-11-29T20:16:09.822Z,87.58
2022-11-29T20:18:38.395Z,87.09
2022-11-29T20:21:07.352Z,86.92
2022-11-29T20:23:34.244Z,86.45
2022-11-29T20:26:01.433Z,86.74
2022-11-29T20:28:28.323Z,87.48
2022-11-29T20:30:55.000Z,87.67
2022-11-29T20:33:24.542Z,87.42
2022-11-29T20:36:00.925Z,86.91
2022-11-29T20:38:36.894Z,86.79
2022-11-29T20:41:14.988Z,86.84
2022-11-29T20:43:50.249Z,86.59
2022-11-29T20:46:16.858Z,87.15
2022-11-29T20:48:43.547Z,87.42
2022-11-29T20:51:10.626Z,87.07
2022-11-29T20:53:40.851Z,87.20
2022-11-29T20:56:09.638Z,87.49
2022-11-29T20:58:36.510Z,87.27
2022-11-29T21:01:04.149Z,87.04
2022-11-29T21:03:30.836Z,87.39
2022-11-29T21:05:57.809Z,87.18
2022-11-29T21:08:26.524Z,86.67
2022-11-29T21:10:53.861Z,86.94
2022-11-29T21:13:21.900Z,86.89
2022-11-29T21:15:49.077Z,86.48
2022-11-29T21:18:25.834Z,86.79
2022-11-29T21:21:12.258Z,85.97
2022-11-29T21:24:10.601Z,86.28
2022-11-29T21:26:47.039Z,86.64
2022-11-29T21:29:19.216Z,86.24
2022-11-29T21:31:47.650Z,86.34
2022-11-29T21:34:14.112Z,86.47
2022-11-29T21:36:41.121Z,86.52
2022-11-29T21:39:12.513Z,86.46
2022-11-29T21:41:39.467Z,86.54
2022-11-29T21:44:07.728Z,86.04
2022-11-29T21:46:34.865Z,86.57
2022-11-29T21:49:01.345Z,86.32
2022-11-29T21:51:27.704Z,86.32
2022-11-29T21:53:54.244Z,86.33
2022-11-29T21:56:20.684Z,85.87
2022-11-29T21:58:47.152Z,86.32
2022-11-29T22:01:17.379Z,85.69
2022-11-29T22:03:44.314Z,86.13
2022-11-29T22:06:12.977Z,86.14
2022-11-29T22:08:41.258Z,85.55
2022-11-29T22:11:10.462Z,85.72
2022-11-29T22:13:57.764Z,86.26
2022-11-29T22:16:24.409Z,86.18
2022-11-29T22:18:51.372Z,86.52
2022-11-29T22:21:17.790Z,86.24
2022-11-29T22:23:44.305Z,86.19
2022-11-29T22:26:10.842Z,86.54
2022-11-29T22:28:37.411Z,86.47
2022-11-29T22:31:09.327Z,86.44
2022-11-29T22:33:35.909Z,85.59
2022-11-29T22:36:10.293Z,85.84
2022-11-29T22:38:37.473Z,85.86
2022-11-29T22:41:07.077Z,86.07
2022-11-29T22:43:33.776Z,86.30
2022-11-29T22:46:08.801Z,86.24
2022-11-29T22:48:38.928Z,85.68
2022-11-29T22:51:17.000Z,85.75
2022-11-29T22:53:48.861Z,85.38
2022-11-29T22:56:15.563Z,85.05
2022-11-29T22:58:42.136Z,85.39
2022-11-29T23:01:17.801Z,84.79
2022-11-29T23:03:51.662Z,84.17
2022-11-29T23:06:20.194Z,84.51
2022-11-29T23:08:48.053Z,84.82
2022-11-29T23:11:21.102Z,84.97
2022-11-29T23:13:47.715Z,85.04
2022-11-29T23:16:18.154Z,84.87
2022-11-29T23:18:45.719Z,85.22
2022-11-29T23:21:18.357Z,85.16
2022-11-29T23:23:44.923Z,84.91
2022-11-29T23:26:33.901Z,85.51
2022-11-29T23:29:00.568Z,85.06
2022-11-29T23:31:27.200Z,85.08
2022-11-29T23:33:54.097Z,85.59
2022-11-29T23:36:20.953Z,85.76
2022-11-29T23:38:47.672Z,85.72
2022-11-29T23:41:14.400Z,85.77
2022-11-29T23:43:41.991Z,85.71
2022-11-29T23:46:12.938Z,85.23
2022-11-29T23:48:39.547Z,85.77
2022-11-29T23:51:05.995Z,85.94
2022-11-29T23:53:32.886Z,86.29
2022-11-29T23:56:01.607Z,85.79
2022-11-29T23:58:29.389Z,85.74
